Time;durP1;ratioP1;P1;durP2;ratioP2;P2;SDS_P1;SDS_P2;PMS_P1;PMS_P2;Temp;Humidity;BMP_temperature;BMP_pressure;BME280_temperature;BME280_humidity;BME280_pressure;Samples;Min_cycle;Max_cycle;Signal;HPM_P1;HPM_P2
2022/09/17 00:00:54;;;;;;;;;;;;;;;;;;5114905;28;19912;-24
2022/09/17 00:03:21;;;;;;;;;;;;;;;;;;5114903;28;19973;-23
2022/09/17 00:05:47;;;;;;;;;;;;;;;;;;5115051;28;19945;-23
2022/09/17 00:08:13;;;;;;;;;;;;;;;;;;5114630;28;19919;-23
2022/09/17 00:10:40;;;;;;;;;;;;;;;;;;5114772;28;19908;-23
2022/09/17 00:13:06;;;;;;;;;;;;;;;;;;5115037;28;19972;-23
2022/09/17 00:15:32;;;;;;;;;;;;;;;;;;5114955;28;19987;-23
2022/09/17 00:17:58;;;;;;;;;;;;;;;;;;5114616;28;19912;-23
2022/09/17 00:20:25;;;;;;;;;;;;;;;;;;5114618;28;19986;-23
2022/09/17 00:22:51;;;;;;;;;;;;;;;;;;5114579;28;19923;-23
2022/09/17 00:25:17;;;;;;;;;;;;;;;;;;5115988;28;19927;-23
2022/09/17 00:27:43;;;;;;;;;;;;;;;;;;5118479;28;20234;-23
2022/09/17 00:30:09;;;;;;;;;;;;;;;;;;5118374;28;20018;-23
2022/09/17 00:32:35;;;;;;;;;;;;;;;;;;5118271;28;19995;-23
2022/09/17 00:35:01;;;;;;;;;;;;;;;;;;5118613;28;19950;-23
2022/09/17 00:37:27;;;;;;;;;;;;;;;;;;5118235;28;20006;-23
2022/09/17 00:39:53;;;;;;;;;;;;;;;;;;5118176;28;19912;-23
2022/09/17 00:42:19;;;;;;;;;;;;;;;;;;5117256;28;19918;-23
2022/09/17 00:44:46;;;;;;;;;;;;;;;;;;5118174;28;19959;-23
2022/09/17 00:47:12;;;;;;;;;;;;;;;;;;5117883;28;19920;-23
2022/09/17 00:49:38;;;;;;;;;;;;;;;;;;5116899;28;20029;-23
2022/09/17 00:52:04;;;;;;;;;;;;;;;;;;5118253;28;19912;-23
2022/09/17 00:54:30;;;;;;;;;;;;;;;;;;5117870;28;19919;-23
2022/09/17 00:56:56;;;;;;;;;;;;;;;;;;5117804;28;19912;-23
2022/09/17 00:59:22;;;;;;;;;;;;;;;;;;5117801;28;19907;-23
2022/09/17 01:01:48;;;;;;;;;;;;;;;;;;5117757;28;19916;-23
2022/09/17 01:04:14;;;;;;;;;;;;;;;;;;5117770;28;19912;-23
2022/09/17 01:06:40;;;;;;;;;;;;;;;;;;5117823;28;19939;-23
2022/09/17 01:09:06;;;;;;;;;;;;;;;;;;5117788;28;19957;-23
2022/09/17 01:11:32;;;;;;;;;;;;;;;;;;5117628;28;19947;-23
2022/09/17 01:13:58;;;;;;;;;;;;;;;;;;5117587;28;19943;-23
2022/09/17 01:16:24;;;;;;;;;;;;;;;;;;5116539;28;19958;-23
2022/09/17 01:18:50;;;;;;;;;;;;;;;;;;5116466;28;20011;-23
2022/09/17 01:21:16;;;;;;;;;;;;;;;;;;5117736;28;19946;-23
2022/09/17 01:23:42;;;;;;;;;;;;;;;;;;5117390;28;20057;-23
2022/09/17 01:26:08;;;;;;;;;;;;;;;;;;5117504;28;19927;-23
2022/09/17 01:28:34;;;;;;;;;;;;;;;;;;5117215;28;19908;-23
2022/09/17 01:31:00;;;;;;;;;;;;;;;;;;5117094;28;20356;-23
2022/09/17 01:33:27;;;;;;;;;;;;;;;;;;5117082;28;19908;-23
2022/09/17 01:35:53;;;;;;;;;;;;;;;;;;5117044;28;19969;-23
2022/09/17 01:38:19;;;;;;;;;;;;;;;;;;5116355;28;19916;-23
2022/09/17 01:40:45;;;;;;;;;;;;;;;;;;5116875;28;19922;-23
2022/09/17 01:43:12;;;;;;;;;;;;;;;;;;5116922;28;20253;-23
2022/09/17 01:45:38;;;;;;;;;;;;;;;;;;5117043;28;19915;-23
2022/09/17 01:48:04;;;;;;;;;;;;;;;;;;5116788;28;20315;-23
2022/09/17 01:50:30;;;;;;;;;;;;;;;;;;5117112;28;19911;-23
2022/09/17 01:52:56;;;;;;;;;;;;;;;;;;5117098;28;20239;-24
2022/09/17 01:55:22;;;;;;;;;;;;;;;;;;5116816;28;20013;-23
2022/09/17 01:57:48;;;;;;;;;;;;;;;;;;5116698;28;19916;-23
2022/09/17 02:00:15;;;;;;;;;;;;;;;;;;5098757;28;19908;-23
2022/09/17 02:02:41;;;;;;;;;;;;;;;;;;5116837;28;19942;-23
2022/09/17 02:05:07;;;;;;;;;;;;;;;;;;5116437;28;19915;-23
2022/09/17 02:07:33;;;;;;;;;;;;;;;;;;5098473;28;19919;-23
2022/09/17 02:10:00;;;;;;;;;;;;;;;;;;5116372;28;20308;-24
2022/09/17 02:12:26;;;;;;;;;;;;;;;;;;5116297;28;19912;-23
2022/09/17 02:14:52;;;;;;;;;;;;;;;;;;5116361;28;19969;-23
2022/09/17 02:17:18;;;;;;;;;;;;;;;;;;5116187;28;20304;-24
2022/09/17 02:19:44;;;;;;;;;;;;;;;;;;5116546;28;19911;-23
2022/09/17 02:22:10;;;;;;;;;;;;;;;;;;5098276;28;19987;-23
2022/09/17 02:24:36;;;;;;;;;;;;;;;;;;5116173;28;19912;-23
2022/09/17 02:27:02;;;;;;;;;;;;;;;;;;5098018;28;19960;-23
2022/09/17 02:29:28;;;;;;;;;;;;;;;;;;5116096;28;19908;-23
2022/09/17 02:31:54;;;;;;;;;;;;;;;;;;5116204;28;19995;-23
2022/09/17 02:34:21;;;;;;;;;;;;;;;;;;5116018;28;20351;-23
2022/09/17 02:36:47;;;;;;;;;;;;;;;;;;5116195;28;19912;-23
2022/09/17 02:39:13;;;;;;;;;;;;;;;;;;5116186;28;19914;-23
2022/09/17 02:41:39;;;;;;;;;;;;;;;;;;5115773;28;19996;-23
2022/09/17 02:44:05;;;;;;;;;;;;;;;;;;5115816;28;20001;-23
2022/09/17 02:46:31;;;;;;;;;;;;;;;;;;5115586;28;19973;-23
2022/09/17 02:48:58;;;;;;;;;;;;;;;;;;5114488;28;19929;-23
2022/09/17 02:51:25;;;;;;;;;;;;;;;;;;5115654;28;19919;-23
2022/09/17 02:53:51;;;;;;;;;;;;;;;;;;5115906;28;19919;-23
2022/09/17 02:56:17;;;;;;;;;;;;;;;;;;5115866;28;20340;-23
2022/09/17 02:58:43;;;;;;;;;;;;;;;;;;5115512;28;19960;-23
2022/09/17 03:01:09;;;;;;;;;;;;;;;;;;5115859;28;19912;-23
2022/09/17 03:03:35;;;;;;;;;;;;;;;;;;5115391;28;19912;-23
2022/09/17 03:06:01;;;;;;;;;;;;;;;;;;5115459;28;20015;-23
2022/09/17 03:08:27;;;;;;;;;;;;;;;;;;5115373;28;19958;-23
2022/09/17 03:10:53;;;;;;;;;;;;;;;;;;5115508;28;19957;-23
2022/09/17 03:13:19;;;;;;;;;;;;;;;;;;5115693;28;19922;-23
2022/09/17 03:15:45;;;;;;;;;;;;;;;;;;5115652;28;20257;-23
2022/09/17 03:18:11;;;;;;;;;;;;;;;;;;5115263;28;20377;-23
2022/09/17 03:20:37;;;;;;;;;;;;;;;;;;5116022;28;19920;-23
2022/09/17 03:23:03;;;;;;;;;;;;;;;;;;5115200;28;19912;-23
2022/09/17 03:25:29;;;;;;;;;;;;;;;;;;5115372;28;19927;-23
2022/09/17 03:27:55;;;;;;;;;;;;;;;;;;5115188;28;19908;-23
2022/09/17 03:30:21;;;;;;;;;;;;;;;;;;5115182;28;20227;-23
2022/09/17 03:32:47;;;;;;;;;;;;;;;;;;5115118;28;19937;-24
2022/09/17 03:35:13;;;;;;;;;;;;;;;;;;5115116;28;19911;-24
2022/09/17 03:37:39;;;;;;;;;;;;;;;;;;5115299;28;20261;-24
2022/09/17 03:40:05;;;;;;;;;;;;;;;;;;5097097;28;19955;-23
2022/09/17 03:42:31;;;;;;;;;;;;;;;;;;5098147;28;20238;-23
2022/09/17 03:44:57;;;;;;;;;;;;;;;;;;5115066;28;19920;-23
2022/09/17 03:47:23;;;;;;;;;;;;;;;;;;5114885;28;20203;-23
2022/09/17 03:49:51;;;;;;;;;;;;;;;;;;5115136;28;19911;-23
2022/09/17 03:52:17;;;;;;;;;;;;;;;;;;5114894;28;20074;-23
2022/09/17 03:54:43;;;;;;;;;;;;;;;;;;5114889;28;19951;-22
2022/09/17 03:57:08;;;;;;;;;;;;;;;;;;5114805;28;19912;-23
2022/09/17 03:59:35;;;;;;;;;;;;;;;;;;5114917;28;20323;-23
2022/09/17 04:02:00;;;;;;;;;;;;;;;;;;5119057;28;19923;-22
2022/09/17 04:04:26;;;;;;;;;;;;;;;;;;5118791;28;19912;-24
2022/09/17 04:06:53;;;;;;;;;;;;;;;;;;5118876;28;20021;-24
2022/09/17 04:09:19;;;;;;;;;;;;;;;;;;5118995;28;20295;-24
2022/09/17 04:11:45;;;;;;;;;;;;;;;;;;5118427;28;19954;-24
2022/09/17 04:14:11;;;;;;;;;;;;;;;;;;5118361;28;20361;-24
2022/09/17 04:16:37;;;;;;;;;;;;;;;;;;5100157;28;19956;-24
2022/09/17 04:19:03;;;;;;;;;;;;;;;;;;5118027;28;19912;-24
2022/09/17 04:21:29;;;;;;;;;;;;;;;;;;5118045;28;19923;-24
2022/09/17 04:23:55;;;;;;;;;;;;;;;;;;5118039;28;19908;-24
2022/09/17 04:26:21;;;;;;;;;;;;;;;;;;5118541;28;19916;-23
2022/09/17 04:28:47;;;;;;;;;;;;;;;;;;5118387;28;19911;-24
2022/09/17 04:31:13;;;;;;;;;;;;;;;;;;5118357;28;20365;-24
2022/09/17 04:33:39;;;;;;;;;;;;;;;;;;5118674;28;19916;-24
2022/09/17 04:36:05;;;;;;;;;;;;;;;;;;5118106;28;19926;-24
2022/09/17 04:38:32;;;;;;;;;;;;;;;;;;5117896;28;19912;-24
2022/09/17 04:40:58;;;;;;;;;;;;;;;;;;5117616;28;19984;-24
2022/09/17 04:43:24;;;;;;;;;;;;;;;;;;5117681;28;19915;-24
2022/09/17 04:45:50;;;;;;;;;;;;;;;;;;5117665;28;20007;-23
2022/09/17 04:48:16;;;;;;;;;;;;;;;;;;5117595;28;20006;-24
2022/09/17 04:50:42;;;;;;;;;;;;;;;;;;5117676;28;19916;-24
2022/09/17 04:53:08;;;;;;;;;;;;;;;;;;5099616;28;19922;-24
2022/09/17 04:55:34;;;;;;;;;;;;;;;;;;5099560;28;20202;-24
2022/09/17 04:58:00;;;;;;;;;;;;;;;;;;5117475;28;19933;-24
2022/09/17 05:00:26;;;;;;;;;;;;;;;;;;5118189;28;19912;-23
2022/09/17 05:02:52;;;;;;;;;;;;;;;;;;5117596;28;19997;-23
2022/09/17 05:05:18;;;;;;;;;;;;;;;;;;5117392;28;19908;-23
2022/09/17 05:07:44;;;;;;;;;;;;;;;;;;5099094;28;20045;-24
2022/09/17 05:10:10;;;;;;;;;;;;;;;;;;5117289;28;19912;-24
2022/09/17 05:12:36;;;;;;;;;;;;;;;;;;5116533;28;19907;-24
2022/09/17 05:15:02;;;;;;;;;;;;;;;;;;5117254;28;19923;-24
2022/09/17 05:17:28;;;;;;;;;;;;;;;;;;5116769;28;20397;-24
2022/09/17 05:19:54;;;;;;;;;;;;;;;;;;5116829;28;19922;-24
2022/09/17 05:22:20;;;;;;;;;;;;;;;;;;5116466;28;19911;-24
2022/09/17 05:24:46;;;;;;;;;;;;;;;;;;5116615;28;19919;-23
2022/09/17 05:27:12;;;;;;;;;;;;;;;;;;5116722;28;19923;-24
2022/09/17 05:29:38;;;;;;;;;;;;;;;;;;5116624;28;19951;-23
2022/09/17 05:32:04;;;;;;;;;;;;;;;;;;5117248;28;19922;-24
2022/09/17 05:34:30;;;;;;;;;;;;;;;;;;5117009;28;19918;-23
2022/09/17 05:36:56;;;;;;;;;;;;;;;;;;5116431;28;19915;-24
2022/09/17 05:39:24;;;;;;;;;;;;;;;;;;5116343;28;19960;-24
2022/09/17 05:41:50;;;;;;;;;;;;;;;;;;5098460;28;19916;-24
2022/09/17 05:44:16;;;;;;;;;;;;;;;;;;5098709;28;19908;-24
2022/09/17 05:46:42;;;;;;;;;;;;;;;;;;5099016;28;19916;-24
2022/09/17 05:49:08;;;;;;;;;;;;;;;;;;5115899;28;20281;-23
2022/09/17 05:51:34;;;;;;;;;;;;;;;;;;5116273;28;20354;-23
2022/09/17 05:54:00;;;;;;;;;;;;;;;;;;5116204;28;19908;-23
2022/09/17 05:56:26;;;;;;;;;;;;;;;;;;5116190;28;19911;-23
2022/09/17 05:58:52;;;;;;;;;;;;;;;;;;5115891;28;19940;-24
2022/09/17 06:01:18;;;;;;;;;;;;;;;;;;5097831;28;19960;-24
2022/09/17 06:03:44;;;;;;;;;;;;;;;;;;5115796;28;19957;-24
2022/09/17 06:06:10;;;;;;;;;;;;;;;;;;5097821;28;19916;-24
2022/09/17 06:08:36;;;;;;;;;;;;;;;;;;5115854;28;19908;-24
2022/09/17 06:11:01;;;;;;;;;;;;;;;;;;5115716;28;20352;-24
2022/09/17 06:13:27;;;;;;;;;;;;;;;;;;5115731;28;19911;-24
2022/09/17 06:15:53;;;;;;;;;;;;;;;;;;5115518;28;20007;-24
2022/09/17 06:18:19;;;;;;;;;;;;;;;;;;5115121;28;19969;-24
2022/09/17 06:20:45;;;;;;;;;;;;;;;;;;5115595;28;19927;-24
2022/09/17 06:23:11;;;;;;;;;;;;;;;;;;5114987;28;19942;-24
2022/09/17 06:25:37;;;;;;;;;;;;;;;;;;5096960;28;20019;-24
2022/09/17 06:28:04;;;;;;;;;;;;;;;;;;5114847;28;19976;-24
2022/09/17 06:30:30;;;;;;;;;;;;;;;;;;5114880;28;19915;-23
2022/09/17 06:32:56;;;;;;;;;;;;;;;;;;5115012;28;19919;-23
2022/09/17 06:35:22;;;;;;;;;;;;;;;;;;5097100;28;20334;-23
2022/09/17 06:37:48;;;;;;;;;;;;;;;;;;5115060;28;19907;-23
2022/09/17 06:40:14;;;;;;;;;;;;;;;;;;5115777;28;19951;-23
2022/09/17 06:42:41;;;;;;;;;;;;;;;;;;5115837;28;19911;-23
2022/09/17 06:45:07;;;;;;;;;;;;;;;;;;5115530;28;20002;-23
2022/09/17 06:47:33;;;;;;;;;;;;;;;;;;5115443;28;19961;-23
2022/09/17 06:50:00;;;;;;;;;;;;;;;;;;5097224;28;19916;-23
2022/09/17 06:52:26;;;;;;;;;;;;;;;;;;5114670;28;20295;-23
2022/09/17 06:54:52;;;;;;;;;;;;;;;;;;5114765;28;20011;-23
2022/09/17 06:57:18;;;;;;;;;;;;;;;;;;5114669;28;19922;-23
2022/09/17 06:59:44;;;;;;;;;;;;;;;;;;5114923;28;19908;-23
2022/09/17 07:02:10;;;;;;;;;;;;;;;;;;5114675;28;19961;-23
2022/09/17 07:04:36;;;;;;;;;;;;;;;;;;5114625;28;19916;-23
2022/09/17 07:07:04;;;;;;;;;;;;;;;;;;5114380;28;20342;-23
2022/09/17 07:09:30;;;;;;;;;;;;;;;;;;5114601;28;19908;-23
2022/09/17 07:11:56;;;;;;;;;;;;;;;;;;5114433;28;19940;-23
2022/09/17 07:14:23;;;;;;;;;;;;;;;;;;5114697;28;19919;-23
2022/09/17 07:16:49;;;;;;;;;;;;;;;;;;5114737;28;19908;-23
2022/09/17 07:19:15;;;;;;;;;;;;;;;;;;5115264;28;19908;-23
2022/09/17 07:21:41;;;;;;;;;;;;;;;;;;5096951;28;20350;-23
2022/09/17 07:24:07;;;;;;;;;;;;;;;;;;5096856;28;20345;-23
2022/09/17 07:26:33;;;;;;;;;;;;;;;;;;5115061;28;19923;-23
2022/09/17 07:28:59;;;;;;;;;;;;;;;;;;5096764;28;19919;-23
2022/09/17 07:31:25;;;;;;;;;;;;;;;;;;5114843;28;19922;-24
2022/09/17 07:33:51;;;;;;;;;;;;;;;;;;5115039;28;19916;-23
2022/09/17 07:36:17;;;;;;;;;;;;;;;;;;5120879;28;20411;-23
2022/09/17 07:38:43;;;;;;;;;;;;;;;;;;5121334;28;19912;-23
2022/09/17 07:41:11;;;;;;;;;;;;;;;;;;5121635;28;19922;-23
2022/09/17 07:43:37;;;;;;;;;;;;;;;;;;5121553;28;19926;-23
2022/09/17 07:46:03;;;;;;;;;;;;;;;;;;5121343;28;19911;-23
2022/09/17 07:48:29;;;;;;;;;;;;;;;;;;5121092;28;20302;-23
2022/09/17 07:50:55;;;;;;;;;;;;;;;;;;5121132;28;19912;-23
2022/09/17 07:53:21;;;;;;;;;;;;;;;;;;5120991;28;19908;-23
2022/09/17 07:55:47;;;;;;;;;;;;;;;;;;5121504;28;19923;-23
2022/09/17 07:58:13;;;;;;;;;;;;;;;;;;5121121;28;20310;-23
2022/09/17 08:00:40;;;;;;;;;;;;;;;;;;5120913;28;19919;-23
2022/09/17 08:03:06;;;;;;;;;;;;;;;;;;5120833;28;19930;-23
2022/09/17 08:05:32;;;;;;;;;;;;;;;;;;5102708;28;19912;-23
2022/09/17 08:07:58;;;;;;;;;;;;;;;;;;5121051;28;19907;-24
2022/09/17 08:10:25;;;;;;;;;;;;;;;;;;5120977;28;19995;-23
2022/09/17 08:12:51;;;;;;;;;;;;;;;;;;5120857;28;20009;-24
2022/09/17 08:15:18;;;;;;;;;;;;;;;;;;5120983;28;19943;-24
2022/09/17 08:17:44;;;;;;;;;;;;;;;;;;5120716;28;19984;-23
2022/09/17 08:20:10;;;;;;;;;;;;;;;;;;5120931;28;19912;-25
2022/09/17 08:22:36;;;;;;;;;;;;;;;;;;5103028;28;19922;-25
2022/09/17 08:25:03;;;;;;;;;;;;;;;;;;5103090;28;19919;-22
2022/09/17 08:27:29;;;;;;;;;;;;;;;;;;5120961;28;19969;-22
2022/09/17 08:29:55;;;;;;;;;;;;;;;;;;5121351;28;20285;-23
2022/09/17 08:32:21;;;;;;;;;;;;;;;;;;5121211;28;19921;-23
2022/09/17 08:34:47;;;;;;;;;;;;;;;;;;5120974;28;19915;-23
2022/09/17 08:37:13;;;;;;;;;;;;;;;;;;5120592;28;20006;-23
2022/09/17 08:39:39;;;;;;;;;;;;;;;;;;5120825;28;19912;-23
2022/09/17 08:42:06;;;;;;;;;;;;;;;;;;5121275;28;19950;-23
2022/09/17 08:44:32;;;;;;;;;;;;;;;;;;5102742;28;19956;-23
2022/09/17 08:46:59;;;;;;;;;;;;;;;;;;5118391;28;19911;-23
2022/09/17 08:49:25;;;;;;;;;;;;;;;;;;5112822;28;19967;-23
2022/09/17 08:51:52;;;;;;;;;;;;;;;;;;5117082;28;19908;-24
2022/09/17 08:54:18;;;;;;;;;;;;;;;;;;5116963;28;19912;-24
2022/09/17 08:56:44;;;;;;;;;;;;;;;;;;5117021;28;19907;-24
2022/09/17 08:59:09;;;;;;;;;;;;;;;;;;5116937;28;19912;-24
2022/09/17 09:01:36;;;;;;;;;;;;;;;;;;5117195;28;19907;-24
2022/09/17 09:04:04;;;;;;;;;;;;;;;;;;5116882;28;19912;-24
2022/09/17 09:06:30;;;;;;;;;;;;;;;;;;5116673;28;20303;-23
2022/09/17 09:08:56;;;;;;;;;;;;;;;;;;5116697;28;19935;-24
2022/09/17 09:11:25;;;;;;;;;;;;;;;;;;5116732;28;19912;-23
2022/09/17 09:13:51;;;;;;;;;;;;;;;;;;5116856;28;20238;-23
2022/09/17 09:16:17;;;;;;;;;;;;;;;;;;5116820;28;19912;-24
2022/09/17 09:18:43;;;;;;;;;;;;;;;;;;5116856;28;19961;-24
2022/09/17 09:21:08;;;;;;;;;;;;;;;;;;5116552;28;19912;-24
2022/09/17 09:23:35;;;;;;;;;;;;;;;;;;5116950;28;19908;-23
2022/09/17 09:26:01;;;;;;;;;;;;;;;;;;5116620;28;19916;-24
2022/09/17 09:28:26;;;;;;;;;;;;;;;;;;5116744;28;19947;-24
2022/09/17 09:30:52;;;;;;;;;;;;;;;;;;5116905;28;19915;-23
2022/09/17 09:33:18;;;;;;;;;;;;;;;;;;5110742;28;19945;-23
2022/09/17 09:35:45;;;;;;;;;;;;;;;;;;5116931;28;20010;-23
2022/09/17 09:38:11;;;;;;;;;;;;;;;;;;5115521;28;19912;-23
2022/09/17 09:40:37;;;;;;;;;;;;;;;;;;5116377;28;20274;-23
2022/09/17 09:43:02;;;;;;;;;;;;;;;;;;5116488;28;19942;-23
2022/09/17 09:45:28;;;;;;;;;;;;;;;;;;5116772;28;19908;-23
2022/09/17 09:47:55;;;;;;;;;;;;;;;;;;5115511;28;20408;-23
2022/09/17 09:50:21;;;;;;;;;;;;;;;;;;5116133;28;20277;-23
2022/09/17 09:52:47;;;;;;;;;;;;;;;;;;5116047;28;19927;-23
2022/09/17 09:55:13;;;;;;;;;;;;;;;;;;5116268;28;19994;-23
2022/09/17 09:57:39;;;;;;;;;;;;;;;;;;5115601;28;19939;-23
2022/09/17 10:00:05;;;;;;;;;;;;;;;;;;5115970;28;20365;-23
2022/09/17 10:02:31;;;;;;;;;;;;;;;;;;5116113;28;19999;-23
2022/09/17 10:04:57;;;;;;;;;;;;;;;;;;5116197;28;20165;-23
2022/09/17 10:07:23;;;;;;;;;;;;;;;;;;5115543;28;19964;-23
2022/09/17 10:09:49;;;;;;;;;;;;;;;;;;5116123;28;19922;-23
2022/09/17 10:12:15;;;;;;;;;;;;;;;;;;5115802;28;20306;-23
2022/09/17 10:14:41;;;;;;;;;;;;;;;;;;5114988;28;19911;-23
2022/09/17 10:17:07;;;;;;;;;;;;;;;;;;5115659;28;19919;-24
2022/09/17 10:19:33;;;;;;;;;;;;;;;;;;5115754;28;19970;-24
2022/09/17 10:21:59;;;;;;;;;;;;;;;;;;5114365;28;20297;-24
2022/09/17 10:24:25;;;;;;;;;;;;;;;;;;5115546;28;19958;-24
2022/09/17 10:26:51;;;;;;;;;;;;;;;;;;5115489;28;19947;-24
2022/09/17 10:29:17;;;;;;;;;;;;;;;;;;5115706;28;19912;-24
2022/09/17 10:31:43;;;;;;;;;;;;;;;;;;5115836;28;19914;-26
2022/09/17 10:34:09;;;;;;;;;;;;;;;;;;5115405;28;20390;-24
2022/09/17 10:39:20;;;;;;;;;;;;;;;;;;5120049;28;19915;-24
2022/09/17 10:41:48;;;;;;;;;;;;;;;;;;5118393;28;20348;-24
2022/09/17 10:44:14;;;;;;;;;;;;;;;;;;5119280;28;19908;-24
2022/09/17 10:46:41;;;;;;;;;;;;;;;;;;5118663;28;20223;-24
2022/09/17 10:49:08;;;;;;;;;;;;;;;;;;5103280;28;19927;-24
2022/09/17 10:51:36;;;;;;;;;;;;;;;;;;5098162;28;19912;-23
2022/09/17 10:54:04;;;;;;;;;;;;;;;;;;5098989;28;19908;-23
2022/09/17 10:56:35;;;;;;;;;;;;;;;;;;5099144;28;19912;-23
2022/09/17 10:59:02;;;;;;;;;;;;;;;;;;5080929;28;19923;-23
2022/09/17 11:01:29;;;;;;;;;;;;;;;;;;5099606;28;19912;-23
2022/09/17 11:03:56;;;;;;;;;;;;;;;;;;5098426;28;19913;-23
2022/09/17 11:06:24;;;;;;;;;;;;;;;;;;5098099;28;19978;-23
2022/09/17 11:08:52;;;;;;;;;;;;;;;;;;5098317;28;19943;-25
2022/09/17 11:11:27;;;;;;;;;;;;;;;;;;5097039;28;19991;-25
2022/09/17 11:13:58;;;;;;;;;;;;;;;;;;5099223;28;19953;-23
2022/09/17 11:21:57;;;;;;;;;;;;;;;;;;5098268;28;19985;-23
2022/09/17 11:24:24;;;;;;;;;;;;;;;;;;5096831;28;20350;-23
2022/09/17 11:26:52;;;;;;;;;;;;;;;;;;5097622;28;19916;-23
2022/09/17 11:29:19;;;;;;;;;;;;;;;;;;5097961;28;19916;-23
2022/09/17 11:31:48;;;;;;;;;;;;;;;;;;5096892;28;19904;-23
2022/09/17 11:34:16;;;;;;;;;;;;;;;;;;5097590;28;19912;-23
2022/09/17 11:45:17;;;;;;;;;;;;;;;;;;5098084;28;19924;-23
2022/09/17 11:47:47;;;;;;;;;;;;;;;;;;5101822;28;19935;-23
2022/09/17 11:50:13;;;;;;;;;;;;;;;;;;5138536;28;19911;-24
2022/09/17 11:52:41;;;;;;;;;;;;;;;;;;5138414;28;19907;-23
2022/09/17 11:55:08;;;;;;;;;;;;;;;;;;5138693;28;19915;-24
2022/09/17 11:57:35;;;;;;;;;;;;;;;;;;5138029;28;19904;-23
2022/09/17 12:00:02;;;;;;;;;;;;;;;;;;5139886;28;19911;-24
2022/09/17 12:02:29;;;;;;;;;;;;;;;;;;5139427;28;19907;-23
2022/09/17 12:04:56;;;;;;;;;;;;;;;;;;5138903;28;20345;-23
2022/09/17 12:07:23;;;;;;;;;;;;;;;;;;5138217;28;19915;-24
2022/09/17 12:09:54;;;;;;;;;;;;;;;;;;5119878;28;19907;-23
2022/09/17 12:12:22;;;;;;;;;;;;;;;;;;5138594;28;20268;-23
2022/09/17 12:14:49;;;;;;;;;;;;;;;;;;5139260;28;19915;-24
2022/09/17 12:17:16;;;;;;;;;;;;;;;;;;5120986;28;19919;-23
2022/09/17 12:22:35;;;;;;;;;;;;;;;;;;5142127;27;20019;-23
2022/09/17 12:25:02;;;;;;;;;;;;;;;;;;5124447;27;19994;-23
2022/09/17 12:27:30;;;;;;;;;;;;;;;;;;5142292;27;19915;-23
2022/09/17 12:30:01;;;;;;;;;;;;;;;;;;5142817;27;19967;-23
2022/09/17 12:32:28;;;;;;;;;;;;;;;;;;5142135;27;19907;-23
2022/09/17 12:34:57;;;;;;;;;;;;;;;;;;5141479;27;19911;-23
2022/09/17 12:37:25;;;;;;;;;;;;;;;;;;5142208;27;19911;-23
2022/09/17 12:39:58;;;;;;;;;;;;;;;;;;5124656;27;19907;-23
2022/09/17 12:42:26;;;;;;;;;;;;;;;;;;5122770;27;19912;-23
2022/09/17 12:44:56;;;;;;;;;;;;;;;;;;5141471;27;19927;-23
2022/09/17 12:47:24;;;;;;;;;;;;;;;;;;5142003;27;19915;-23
2022/09/17 12:49:53;;;;;;;;;;;;;;;;;;5120949;28;19951;-23
2022/09/17 12:52:20;;;;;;;;;;;;;;;;;;5120904;28;20299;-23
2022/09/17 12:54:47;;;;;;;;;;;;;;;;;;5121077;28;19912;-23
2022/09/17 12:57:14;;;;;;;;;;;;;;;;;;5121213;28;19914;-23
2022/09/17 12:59:48;;;;;;;;;;;;;;;;;;5121376;28;20333;-23
2022/09/17 13:02:15;;;;;;;;;;;;;;;;;;5121491;28;19919;-24
2022/09/17 13:07:38;;;;;;;;;;;;;;;;;;5049261;28;19924;-24
2022/09/17 13:10:13;;;;;;;;;;;;;;;;;;5123853;28;19935;-24
2022/09/17 13:12:40;;;;;;;;;;;;;;;;;;5121771;28;19911;-23
2022/09/17 13:15:07;;;;;;;;;;;;;;;;;;5120510;28;19981;-24
2022/09/17 13:17:34;;;;;;;;;;;;;;;;;;5102647;28;20331;-24
2022/09/17 13:20:02;;;;;;;;;;;;;;;;;;5120967;28;19941;-23
2022/09/17 13:22:29;;;;;;;;;;;;;;;;;;5101434;28;19965;-23
2022/09/17 13:24:57;;;;;;;;;;;;;;;;;;5120016;28;19923;-24
2022/09/17 13:27:25;;;;;;;;;;;;;;;;;;5118562;28;20007;-23
2022/09/17 13:29:52;;;;;;;;;;;;;;;;;;5119311;28;19919;-23
2022/09/17 13:32:19;;;;;;;;;;;;;;;;;;5101454;28;19971;-24
2022/09/17 13:34:51;;;;;;;;;;;;;;;;;;5121209;28;19919;-24
2022/09/17 13:37:19;;;;;;;;;;;;;;;;;;5121183;28;19960;-23
2022/09/17 13:39:46;;;;;;;;;;;;;;;;;;5121576;28;20246;-23
2022/09/17 13:42:13;;;;;;;;;;;;;;;;;;5104475;28;20229;-24
2022/09/17 13:44:41;;;;;;;;;;;;;;;;;;5121772;28;19912;-24
2022/09/17 13:47:09;;;;;;;;;;;;;;;;;;5120688;28;19920;-24
2022/09/17 13:49:36;;;;;;;;;;;;;;;;;;5119906;27;20365;-23
2022/09/17 13:54:56;;;;;;;;;;;;;;;;;;5137156;27;20405;-24
2022/09/17 13:57:25;;;;;;;;;;;;;;;;;;5137018;27;20334;-23
2022/09/17 14:00:23;;;;;;;;;;;;;;;;;;5136667;27;19919;-23
2022/09/17 14:03:02;;;;;;;;;;;;;;;;;;5136822;27;19968;-24
2022/09/17 14:05:37;;;;;;;;;;;;;;;;;;5136517;27;19952;-24
2022/09/17 14:10:56;;;;;;;;;;;;;;;;;;5143298;27;20265;-24
2022/09/17 14:13:24;;;;;;;;;;;;;;;;;;5143435;27;19911;-23
2022/09/17 14:15:53;;;;;;;;;;;;;;;;;;5143654;27;20052;-25
2022/09/17 14:18:22;;;;;;;;;;;;;;;;;;5143052;27;19972;-24
2022/09/17 14:20:50;;;;;;;;;;;;;;;;;;5124199;27;19933;-24
2022/09/17 14:23:17;;;;;;;;;;;;;;;;;;5142397;27;19912;-24
2022/09/17 14:25:44;;;;;;;;;;;;;;;;;;5123217;27;20308;-24
2022/09/17 14:28:12;;;;;;;;;;;;;;;;;;5125331;27;19908;-24
2022/09/17 14:30:40;;;;;;;;;;;;;;;;;;5125537;27;19915;-24
2022/09/17 14:35:59;;;;;;;;;;;;;;;;;;5142743;27;19938;-24
2022/09/17 14:38:27;;;;;;;;;;;;;;;;;;5121116;27;19912;-23
2022/09/17 14:46:33;;;;;;;;;;;;;;;;;;5137051;27;19934;-24
2022/09/17 14:49:03;;;;;;;;;;;;;;;;;;5115646;27;19926;-24
2022/09/17 14:51:49;;;;;;;;;;;;;;;;;;5119240;27;19916;-24
2022/09/17 14:54:22;;;;;;;;;;;;;;;;;;5138761;27;19946;-23
2022/09/17 14:56:56;;;;;;;;;;;;;;;;;;5141138;27;19912;-24
2022/09/17 14:59:32;;;;;;;;;;;;;;;;;;5118473;27;20250;-23
2022/09/17 15:04:42;;;;;;;;;;;;;;;;;;5061176;28;20354;-25
2022/09/17 15:07:08;;;;;;;;;;;;;;;;;;5074406;28;19970;-23
2022/09/17 15:09:34;;;;;;;;;;;;;;;;;;5074509;28;20008;-23
2022/09/17 15:12:00;;;;;;;;;;;;;;;;;;5074372;28;19913;-23
2022/09/17 15:14:26;;;;;;;;;;;;;;;;;;5056558;28;20310;-23
2022/09/17 15:16:52;;;;;;;;;;;;;;;;;;5074329;28;19912;-23
2022/09/17 15:19:18;;;;;;;;;;;;;;;;;;5074448;28;20301;-24
2022/09/17 15:21:44;;;;;;;;;;;;;;;;;;5075326;28;19939;-23
2022/09/17 15:24:10;;;;;;;;;;;;;;;;;;5056662;28;20262;-23
2022/09/17 15:26:36;;;;;;;;;;;;;;;;;;5074366;28;19927;-23
2022/09/17 15:29:02;;;;;;;;;;;;;;;;;;5074233;28;19909;-23
2022/09/17 15:31:29;;;;;;;;;;;;;;;;;;5074102;28;20003;-23
2022/09/17 15:33:55;;;;;;;;;;;;;;;;;;5074203;28;19908;-25
2022/09/17 15:36:21;;;;;;;;;;;;;;;;;;5074491;28;19981;-25
2022/09/17 15:38:47;;;;;;;;;;;;;;;;;;5074106;28;19919;-23
2022/09/17 15:41:13;;;;;;;;;;;;;;;;;;5074244;28;19916;-26
2022/09/17 15:43:40;;;;;;;;;;;;;;;;;;5073964;28;19963;-23
2022/09/17 15:46:06;;;;;;;;;;;;;;;;;;5073625;28;19977;-23
2022/09/17 15:48:35;;;;;;;;;;;;;;;;;;5073715;28;19909;-24
2022/09/17 15:51:01;;;;;;;;;;;;;;;;;;5073805;28;19991;-24
2022/09/17 15:53:27;;;;;;;;;;;;;;;;;;5073627;28;19966;-24
2022/09/17 15:55:53;;;;;;;;;;;;;;;;;;5074743;28;19928;-24
2022/09/17 15:58:19;;;;;;;;;;;;;;;;;;5078094;28;20441;-23
2022/09/17 16:00:46;;;;;;;;;;;;;;;;;;5077945;28;19975;-24
2022/09/17 16:03:12;;;;;;;;;;;;;;;;;;5077584;28;20260;-24
2022/09/17 16:05:37;;;;;;;;;;;;;;;;;;5077359;28;20022;-24
2022/09/17 16:08:04;;;;;;;;;;;;;;;;;;5077713;28;19923;-24
2022/09/17 16:10:30;;;;;;;;;;;;;;;;;;5077423;28;19912;-24
2022/09/17 16:12:55;;;;;;;;;;;;;;;;;;5077569;28;19908;-24
2022/09/17 16:15:21;;;;;;;;;;;;;;;;;;5059608;28;19942;-24
2022/09/17 16:17:47;;;;;;;;;;;;;;;;;;5077374;28;20393;-23
2022/09/17 16:20:14;;;;;;;;;;;;;;;;;;5077532;28;19920;-23
2022/09/17 16:22:41;;;;;;;;;;;;;;;;;;5077179;28;20260;-24
2022/09/17 16:25:07;;;;;;;;;;;;;;;;;;5077522;28;19916;-24
2022/09/17 16:27:33;;;;;;;;;;;;;;;;;;5077692;28;19935;-24
2022/09/17 16:29:59;;;;;;;;;;;;;;;;;;5077597;28;19922;-23
2022/09/17 16:32:25;;;;;;;;;;;;;;;;;;5077352;28;19970;-23
2022/09/17 16:34:51;;;;;;;;;;;;;;;;;;5077693;28;20246;-24
2022/09/17 16:37:17;;;;;;;;;;;;;;;;;;5077263;28;19917;-24
2022/09/17 16:39:43;;;;;;;;;;;;;;;;;;5077357;28;19912;-24
2022/09/17 16:42:09;;;;;;;;;;;;;;;;;;5077168;28;19969;-24
2022/09/17 16:44:35;;;;;;;;;;;;;;;;;;5077455;28;19962;-23
2022/09/17 16:47:01;;;;;;;;;;;;;;;;;;5076875;28;19955;-23
2022/09/17 16:49:27;;;;;;;;;;;;;;;;;;5076997;28;19916;-24
2022/09/17 16:51:53;;;;;;;;;;;;;;;;;;5076969;28;19916;-24
2022/09/17 16:54:19;;;;;;;;;;;;;;;;;;5076889;28;19908;-24
2022/09/17 16:56:45;;;;;;;;;;;;;;;;;;5077230;28;19995;-24
2022/09/17 16:59:11;;;;;;;;;;;;;;;;;;5076731;28;20000;-24
2022/09/17 17:01:37;;;;;;;;;;;;;;;;;;5076911;28;19919;-24
2022/09/17 17:04:03;;;;;;;;;;;;;;;;;;5058913;28;20404;-24
2022/09/17 17:06:29;;;;;;;;;;;;;;;;;;5076516;28;19920;-24
2022/09/17 17:08:55;;;;;;;;;;;;;;;;;;5075713;28;19915;-23
2022/09/17 17:11:21;;;;;;;;;;;;;;;;;;5076801;28;19916;-23
2022/09/17 17:13:47;;;;;;;;;;;;;;;;;;5076571;28;19966;-24
2022/09/17 17:16:13;;;;;;;;;;;;;;;;;;5076935;28;19916;-24
2022/09/17 17:18:39;;;;;;;;;;;;;;;;;;5076591;28;20239;-24
2022/09/17 17:21:05;;;;;;;;;;;;;;;;;;5076759;28;19912;-24